עמוד ראשי
METAR-TAF:

METAR-TAF

שדות תעופה :

Qazvin, איראן

קו רוחב: 36-15N, קו אורך: 050-00E, גובה: 1278מטר

תצפית מזג אוויר נוכחית

הדו"ח נערך לפני 42דקות, בשעה 22:00 UTC
רוח 8קשר מכיוון מערב
טמפרטורת 24 צלסיוס
לחות 57%
לחץ 1009 hPa
ראות 10 קילומטר או יותר
מעט עננים בגובה 3500רגל , קומולונימבוס.
עננים בינוניים בגובה 10000רגל

METAR: OIIK 222200Z 28008KT 9999 FEW035CB BKN100 24/15 Q1009 A2981

זמן: 03:12 (22:42 UTC)


TAF: חסר

תצפיות ותחזיות מזג אוויר לגבי יותר מ- 4,000 שדות תעופה ברחבי העולם. דוחות METAR ו- TAF.

התחנות הזמינות מסומנות בנקודות צהובות ואדומות על גבי המפה.

העבר את העכבר לנקודה הצבעונית על מנת לראות את שם התחנה.

לאחר מכן, לחץ כדי לראות את תוכן ואת תחזיות מזג האוויר.

כדי לשנות את המפה: לחץ על הכפתורים הירוקים עם הפלוס השחור כדי להתקרב; על הכפתור הירוק עם המקף כדי להתרחק; או בחיצים הירוקים למפות סמוכות.


METAR-TAF: